Terminal Aerodrome Forecast
Issued by NWS Pueblo, CO

Home | Current Version | Previous Version | Text Only | Print | Product List | Glossary On
Versions: 1 2 3 4 5 6 7 8 9 10 11 12 13
000
FTUS45 KPUB 051730
TAFCOS
TAF
KCOS 051730Z 0518/0618 14008KT P6SM FEW100
     FM052000 16009KT P6SM SCT100 SCT200
     FM060200 12007KT P6SM FEW120 SCT200
     FM060800 34007KT P6SM SCT250
     FM061600 17012KT P6SM FEW120 SCT200=

USA.gov is the U.S. government's official web portal to all federal, state and local government web resources and services.